createdAt,value
2022-08-21T00:00:07.941Z,19.90
2022-08-21T00:02:44.879Z,18.93
2022-08-21T00:05:11.460Z,23.10
2022-08-21T00:07:38.204Z,20.70
2022-08-21T00:10:05.210Z,25.70
2022-08-21T00:12:32.197Z,18.97
2022-08-21T00:14:59.130Z,24.80
2022-08-21T00:17:27.018Z,22.97
2022-08-21T00:19:53.586Z,20.83
2022-08-21T00:22:20.169Z,21.83
2022-08-21T00:24:46.752Z,22.57
2022-08-21T00:27:13.327Z,22.70
2022-08-21T00:29:43.041Z,23.37
2022-08-21T00:32:09.632Z,25.20
2022-08-21T00:34:36.109Z,23.37
2022-08-21T00:37:02.775Z,24.27
2022-08-21T00:39:29.315Z,24.23
2022-08-21T00:41:55.858Z,24.40
2022-08-21T00:44:22.375Z,25.67
2022-08-21T00:46:49.387Z,24.77
2022-08-21T00:49:15.977Z,23.77
2022-08-21T00:51:44.728Z,25.37
2022-08-21T00:54:18.712Z,26.60
2022-08-21T00:56:47.122Z,26.50
2022-08-21T00:59:15.744Z,30.50
2022-08-21T01:01:42.320Z,31.63
2022-08-21T01:04:08.870Z,31.00
2022-08-21T01:06:36.168Z,29.60
2022-08-21T01:09:03.639Z,25.90
2022-08-21T01:11:30.503Z,29.77
2022-08-21T01:13:57.191Z,23.70
2022-08-21T01:16:23.827Z,22.63
2022-08-21T01:18:50.894Z,25.23
2022-08-21T01:21:20.163Z,23.33
2022-08-21T01:23:48.455Z,26.23
2022-08-21T01:26:17.119Z,22.87
2022-08-21T01:28:46.723Z,25.97
2022-08-21T01:31:15.390Z,33.10
2022-08-21T01:33:43.507Z,28.87
2022-08-21T01:36:10.399Z,30.07
2022-08-21T01:38:36.931Z,22.83
2022-08-21T01:41:03.414Z,31.67
2022-08-21T01:43:32.701Z,24.00
2022-08-21T01:46:06.400Z,23.80
2022-08-21T01:48:33.153Z,22.30
2022-08-21T01:51:00.140Z,27.07
2022-08-21T01:53:33.136Z,28.90
2022-08-21T01:56:00.405Z,28.30
2022-08-21T01:58:26.909Z,30.17
2022-08-21T02:00:53.559Z,31.43
2022-08-21T02:03:31.280Z,29.00
2022-08-21T02:06:03.968Z,30.07
2022-08-21T02:08:30.968Z,35.90
2022-08-21T02:10:57.546Z,31.97
2022-08-21T02:13:24.041Z,35.80
2022-08-21T02:15:50.627Z,39.37
2022-08-21T02:18:17.319Z,34.83
2022-08-21T02:20:46.036Z,36.00
2022-08-21T02:23:12.987Z,30.90
2022-08-21T02:25:39.815Z,27.70
2022-08-21T02:28:08.496Z,29.70
2022-08-21T02:30:38.893Z,27.90
2022-08-21T02:33:06.316Z,29.53
2022-08-21T02:35:32.893Z,32.27
2022-08-21T02:38:01.559Z,35.17
2022-08-21T02:40:31.255Z,32.30
2022-08-21T02:42:58.969Z,34.30
2022-08-21T02:45:26.029Z,31.70
2022-08-21T02:47:54.726Z,32.70
2022-08-21T02:50:23.472Z,32.03
2022-08-21T02:52:55.125Z,34.17
2022-08-21T02:55:23.196Z,37.23
2022-08-21T02:57:49.828Z,34.87
2022-08-21T03:00:16.918Z,31.87
2022-08-21T03:02:43.406Z,33.77
2022-08-21T03:05:10.989Z,34.10
2022-08-21T03:07:38.416Z,36.20
2022-08-21T03:10:05.501Z,34.13
2022-08-21T03:12:32.113Z,35.47
2022-08-21T03:14:59.159Z,37.40
2022-08-21T03:17:29.705Z,38.23
2022-08-21T03:19:57.548Z,34.00
2022-08-21T03:22:24.075Z,33.07
2022-08-21T03:24:50.872Z,32.13
2022-08-21T03:27:18.334Z,37.07
2022-08-21T03:29:46.675Z,33.60
2022-08-21T03:32:13.281Z,30.93
2022-08-21T03:34:40.137Z,35.20
2022-08-21T03:37:08.414Z,35.07
2022-08-21T03:39:35.315Z,32.60
2022-08-21T03:42:02.093Z,34.87
2022-08-21T03:44:29.724Z,35.60
2022-08-21T03:46:57.125Z,34.60
2022-08-21T03:49:25.221Z,31.87
2022-08-21T03:51:55.535Z,34.47
2022-08-21T03:54:26.450Z,37.03
2022-08-21T03:56:55.499Z,34.00
2022-08-21T03:59:22.024Z,34.10
2022-08-21T04:01:52.617Z,39.57
2022-08-21T04:04:19.174Z,43.00
2022-08-21T04:06:45.673Z,37.73
2022-08-21T04:09:12.211Z,37.23
2022-08-21T04:11:38.821Z,34.33
2022-08-21T04:14:05.449Z,41.47
2022-08-21T04:16:31.978Z,32.40
2022-08-21T04:18:58.528Z,36.17
2022-08-21T04:21:25.071Z,37.43
2022-08-21T04:23:51.602Z,37.80
2022-08-21T04:26:19.247Z,36.50
2022-08-21T04:28:45.780Z,39.43
2022-08-21T04:31:12.445Z,35.67
2022-08-21T04:33:38.984Z,37.77
2022-08-21T04:36:05.642Z,37.10
2022-08-21T04:38:36.518Z,38.57
2022-08-21T04:41:05.740Z,36.33
2022-08-21T04:43:32.503Z,34.50
2022-08-21T04:45:59.016Z,33.30
2022-08-21T04:48:25.527Z,36.63
2022-08-21T04:50:57.669Z,34.40
2022-08-21T04:53:28.859Z,31.13
2022-08-21T04:55:56.459Z,37.73
2022-08-21T04:58:23.881Z,31.20
2022-08-21T05:00:52.696Z,36.07
2022-08-21T05:03:19.223Z,40.23
2022-08-21T05:05:45.950Z,39.87
2022-08-21T05:08:18.754Z,41.50
2022-08-21T05:10:45.492Z,39.00
2022-08-21T05:13:13.632Z,36.97
2022-08-21T05:15:40.969Z,39.77
2022-08-21T05:18:07.733Z,33.73
2022-08-21T05:20:37.326Z,36.50
2022-08-21T05:23:11.252Z,34.10
2022-08-21T05:25:38.257Z,34.27
2022-08-21T05:28:05.404Z,34.10
2022-08-21T05:30:33.413Z,37.03
2022-08-21T05:33:00.698Z,36.70
2022-08-21T05:35:28.324Z,38.70
2022-08-21T05:37:54.923Z,36.20
2022-08-21T05:40:23.374Z,39.07
2022-08-21T05:42:55.407Z,33.03
2022-08-21T05:45:43.220Z,32.00
2022-08-21T05:48:17.270Z,33.30
2022-08-21T05:50:44.520Z,36.13
2022-08-21T05:53:11.591Z,34.23
2022-08-21T05:55:44.265Z,33.67
2022-08-21T05:58:12.707Z,33.30
2022-08-21T06:00:39.441Z,31.33
2022-08-21T06:03:11.091Z,36.53
2022-08-21T06:05:37.753Z,39.57
2022-08-21T06:08:04.949Z,35.83
2022-08-21T06:10:32.142Z,38.67
2022-08-21T06:12:58.971Z,39.57
2022-08-21T06:15:25.649Z,33.67
2022-08-21T06:17:53.098Z,33.43
2022-08-21T06:20:19.667Z,31.77
2022-08-21T06:22:46.170Z,31.37
2022-08-21T06:25:12.792Z,31.63
2022-08-21T06:27:39.403Z,33.90
2022-08-21T06:30:06.666Z,29.43
2022-08-21T06:32:33.207Z,34.97
2022-08-21T06:34:59.738Z,29.57
2022-08-21T06:37:26.299Z,30.80
2022-08-21T06:39:53.148Z,29.70
2022-08-21T06:42:19.729Z,32.60
2022-08-21T06:44:46.682Z,32.87
2022-08-21T06:47:13.264Z,31.60
2022-08-21T06:49:39.909Z,31.57
2022-08-21T06:52:10.049Z,30.73
2022-08-21T06:54:36.737Z,30.60
2022-08-21T06:57:03.432Z,27.80
2022-08-21T06:59:30.004Z,27.20
2022-08-21T07:01:56.604Z,31.80
2022-08-21T07:04:23.222Z,33.30
2022-08-21T07:06:50.297Z,28.40
2022-08-21T07:09:18.695Z,29.17
2022-08-21T07:11:50.615Z,31.17
2022-08-21T07:14:20.576Z,28.87
2022-08-21T07:16:47.727Z,28.83
2022-08-21T07:19:14.224Z,29.40
2022-08-21T07:21:40.885Z,28.13
2022-08-21T07:24:07.504Z,30.53
2022-08-21T07:26:34.083Z,28.20
2022-08-21T07:29:00.661Z,30.67
2022-08-21T07:31:27.766Z,27.00
2022-08-21T07:33:55.000Z,27.70
2022-08-21T07:36:21.579Z,28.83
2022-08-21T07:38:48.200Z,30.60
2022-08-21T07:41:21.281Z,28.47
2022-08-21T07:43:47.967Z,29.67
2022-08-21T07:46:14.947Z,29.87
2022-08-21T07:48:41.935Z,27.60
2022-08-21T07:51:09.846Z,28.70
2022-08-21T07:53:37.175Z,31.23
2022-08-21T07:56:04.609Z,27.47
2022-08-21T07:58:32.082Z,27.17
2022-08-21T08:01:01.066Z,26.97
2022-08-21T08:03:28.939Z,26.73
2022-08-21T08:05:56.376Z,22.50
2022-08-21T08:08:22.957Z,26.37
2022-08-21T08:10:50.513Z,24.23
2022-08-21T08:13:17.369Z,26.43
2022-08-21T08:15:43.946Z,24.23
2022-08-21T08:18:10.509Z,24.23
2022-08-21T08:20:37.042Z,21.37
2022-08-21T08:23:04.258Z,24.03
2022-08-21T08:25:36.434Z,23.53
2022-08-21T08:28:16.128Z,24.17
2022-08-21T08:30:44.690Z,30.93
2022-08-21T08:33:11.243Z,23.10
2022-08-21T08:35:39.138Z,24.87
2022-08-21T08:38:06.446Z,22.97
2022-08-21T08:40:53.550Z,22.57
2022-08-21T08:43:20.292Z,22.50
2022-08-21T08:45:49.159Z,20.87
2022-08-21T08:48:18.396Z,20.43
2022-08-21T08:50:49.329Z,21.07
2022-08-21T08:53:18.393Z,20.83
2022-08-21T08:55:45.775Z,19.50
2022-08-21T08:58:23.847Z,22.47
2022-08-21T09:00:51.215Z,20.10
2022-08-21T09:03:18.549Z,18.17
2022-08-21T09:06:01.618Z,20.00
2022-08-21T09:08:33.274Z,18.93
2022-08-21T09:11:10.458Z,19.80
2022-08-21T09:13:43.195Z,20.10
2022-08-21T09:16:22.847Z,20.13
2022-08-21T09:18:52.475Z,20.10
2022-08-21T09:21:25.027Z,17.67
2022-08-21T09:24:13.959Z,18.77
2022-08-21T09:27:00.719Z,20.13
2022-08-21T09:29:30.692Z,19.53
2022-08-21T09:31:57.174Z,18.63
2022-08-21T09:34:28.166Z,21.00
2022-08-21T09:36:54.668Z,17.47
2022-08-21T09:39:29.046Z,16.63
2022-08-21T09:41:56.802Z,19.80
2022-08-21T09:44:28.208Z,17.60
2022-08-21T09:46:54.820Z,17.20
2022-08-21T09:49:31.646Z,18.40
2022-08-21T09:51:59.850Z,16.13
2022-08-21T09:54:34.527Z,15.20
2022-08-21T09:57:24.866Z,14.30
2022-08-21T09:59:52.120Z,16.13
2022-08-21T10:02:18.623Z,17.00
2022-08-21T10:04:50.206Z,15.87
2022-08-21T10:07:21.371Z,14.93
2022-08-21T10:09:59.028Z,15.13
2022-08-21T10:12:31.585Z,15.17
2022-08-21T10:15:18.149Z,14.83
2022-08-21T10:18:06.795Z,14.57
2022-08-21T10:20:49.176Z,12.80
2022-08-21T10:23:34.714Z,14.77
2022-08-21T10:26:21.921Z,14.07
2022-08-21T10:29:00.685Z,14.17
2022-08-21T10:31:27.199Z,10.93
2022-08-21T10:33:59.905Z,12.20
2022-08-21T10:36:36.739Z,12.30
2022-08-21T10:39:26.360Z,12.23
2022-08-21T10:42:13.929Z,11.50
2022-08-21T10:44:45.286Z,13.40
2022-08-21T10:47:12.022Z,13.40
2022-08-21T10:49:41.568Z,11.73
2022-08-21T10:52:27.024Z,11.00
2022-08-21T10:54:56.897Z,11.37
2022-08-21T10:57:37.012Z,11.87
2022-08-21T11:00:11.604Z,10.03
2022-08-21T11:02:41.437Z,11.07
2022-08-21T11:05:25.288Z,8.90
2022-08-21T11:07:59.653Z,10.50
2022-08-21T11:10:35.029Z,9.10
2022-08-21T11:13:03.999Z,10.00
2022-08-21T11:15:42.704Z,9.53
2022-08-21T11:18:23.964Z,9.10
2022-08-21T11:20:56.384Z,8.73
2022-08-21T11:23:29.165Z,9.10
2022-08-21T11:26:02.277Z,8.97
2022-08-21T11:28:36.705Z,8.30
2022-08-21T11:31:03.192Z,8.40
2022-08-21T11:33:35.877Z,9.60
2022-08-21T11:36:05.608Z,7.87
2022-08-21T11:38:40.616Z,7.77
2022-08-21T11:41:10.232Z,8.60
2022-08-21T11:43:39.284Z,7.50
2022-08-21T11:46:24.705Z,6.80
2022-08-21T11:49:03.580Z,7.70
2022-08-21T11:51:34.769Z,7.17
2022-08-21T11:54:08.832Z,6.40
2022-08-21T11:56:40.022Z,7.20
2022-08-21T11:59:09.594Z,7.60
2022-08-21T12:01:39.283Z,6.40
2022-08-21T12:04:09.440Z,6.97
2022-08-21T12:06:37.965Z,7.53
2022-08-21T12:09:06.630Z,6.37
2022-08-21T12:11:33.493Z,6.03
2022-08-21T12:14:01.755Z,6.30
2022-08-21T12:16:41.598Z,6.53
2022-08-21T12:19:08.369Z,7.20
2022-08-21T12:21:47.219Z,6.70
2022-08-21T12:24:13.726Z,5.93
2022-08-21T12:26:53.879Z,6.20
2022-08-21T12:29:26.413Z,7.17
2022-08-21T12:31:54.706Z,5.80
2022-08-21T12:34:23.894Z,10.63
2022-08-21T12:37:12.351Z,5.17
2022-08-21T12:39:39.920Z,5.90
2022-08-21T12:42:14.323Z,6.03
2022-08-21T12:44:43.919Z,5.63
2022-08-21T12:47:16.577Z,5.60
2022-08-21T12:49:55.669Z,7.10
2022-08-21T12:52:29.005Z,6.33
2022-08-21T12:54:55.560Z,5.50
2022-08-21T12:57:30.006Z,7.30
2022-08-21T13:00:01.626Z,5.20
2022-08-21T13:02:32.778Z,5.70
2022-08-21T13:05:02.824Z,6.67
2022-08-21T13:07:31.064Z,7.53
2022-08-21T13:09:59.943Z,7.50
2022-08-21T13:12:32.548Z,6.47
2022-08-21T13:15:01.093Z,8.90
2022-08-21T13:17:31.959Z,6.97
2022-08-21T13:19:59.760Z,7.07
2022-08-21T13:22:33.424Z,6.77
2022-08-21T13:25:02.408Z,6.33
2022-08-21T13:27:35.035Z,5.23
2022-08-21T13:30:10.747Z,5.33
2022-08-21T13:32:40.072Z,5.27
2022-08-21T13:35:12.381Z,5.27
2022-08-21T13:37:40.543Z,5.53
2022-08-21T13:40:08.155Z,4.70
2022-08-21T13:42:34.747Z,5.23
2022-08-21T13:45:01.319Z,5.00
2022-08-21T13:47:27.924Z,5.63
2022-08-21T13:49:59.142Z,6.30
2022-08-21T13:52:27.292Z,5.97
2022-08-21T13:54:55.899Z,5.70
2022-08-21T13:57:27.389Z,6.43
2022-08-21T13:59:53.936Z,6.60
2022-08-21T14:02:23.252Z,7.43
2022-08-21T14:04:58.487Z,5.53
2022-08-21T14:07:36.479Z,6.73
2022-08-21T14:10:05.835Z,6.10
2022-08-21T14:12:39.157Z,6.70
2022-08-21T14:15:06.517Z,4.90
2022-08-21T14:17:34.872Z,5.97
2022-08-21T14:20:01.831Z,5.40
2022-08-21T14:22:37.092Z,5.03
2022-08-21T14:25:28.866Z,5.63
2022-08-21T14:27:57.205Z,4.60
2022-08-21T14:30:34.713Z,5.23
2022-08-21T14:33:02.171Z,5.37
2022-08-21T14:35:28.728Z,4.37
2022-08-21T14:37:56.939Z,4.97
2022-08-21T14:40:24.849Z,5.03
2022-08-21T14:42:51.723Z,4.87
2022-08-21T14:45:27.525Z,4.23
2022-08-21T14:47:54.748Z,4.70
2022-08-21T14:50:21.341Z,4.83
2022-08-21T14:52:48.019Z,4.53
2022-08-21T14:55:17.008Z,4.80
2022-08-21T14:57:45.521Z,4.40
2022-08-21T15:00:13.859Z,4.90
2022-08-21T15:02:40.528Z,4.40
2022-08-21T15:05:07.396Z,4.80
2022-08-21T15:07:33.891Z,4.40
2022-08-21T15:10:00.606Z,4.10
2022-08-21T15:12:27.142Z,4.77
2022-08-21T15:14:53.884Z,4.53
2022-08-21T15:17:20.576Z,5.10
2022-08-21T15:19:47.284Z,4.40
2022-08-21T15:22:19.158Z,4.43
2022-08-21T15:24:54.718Z,5.07
2022-08-21T15:27:21.298Z,4.70
2022-08-21T15:29:47.865Z,4.63
2022-08-21T15:32:25.818Z,4.73
2022-08-21T15:34:52.499Z,5.90
2022-08-21T15:37:19.621Z,4.20
2022-08-21T15:39:52.218Z,4.63
2022-08-21T15:42:20.721Z,4.50
2022-08-21T15:44:47.884Z,4.50
2022-08-21T15:47:16.484Z,4.60
2022-08-21T15:49:46.011Z,4.67
2022-08-21T15:52:16.691Z,4.33
2022-08-21T15:54:43.265Z,4.73
2022-08-21T15:57:14.353Z,4.50
2022-08-21T15:59:42.801Z,4.53
2022-08-21T16:02:13.447Z,5.33
2022-08-21T16:04:40.000Z,4.97
2022-08-21T16:07:09.473Z,4.30
2022-08-21T16:09:36.434Z,4.80
2022-08-21T16:12:04.200Z,4.87
2022-08-21T16:14:31.604Z,5.40
2022-08-21T16:16:58.668Z,4.97
2022-08-21T16:19:26.407Z,4.60
2022-08-21T16:21:52.951Z,4.70
2022-08-21T16:24:19.467Z,5.20
2022-08-21T16:26:46.333Z,4.53
2022-08-21T16:29:25.066Z,4.43
2022-08-21T16:31:53.522Z,5.20
2022-08-21T16:34:20.943Z,5.23
2022-08-21T16:36:48.017Z,4.93
2022-08-21T16:39:14.621Z,5.17
2022-08-21T16:41:41.161Z,5.40
2022-08-21T16:44:07.914Z,5.50
2022-08-21T16:46:38.655Z,6.30
2022-08-21T16:49:05.202Z,4.90
2022-08-21T16:51:31.734Z,5.00
2022-08-21T16:53:58.697Z,5.70
2022-08-21T16:56:25.476Z,5.23
2022-08-21T16:58:53.929Z,5.33
2022-08-21T17:01:22.393Z,4.67
2022-08-21T17:03:51.126Z,5.53
2022-08-21T17:06:18.352Z,5.57
2022-08-21T17:08:45.073Z,5.10
2022-08-21T17:11:17.099Z,5.57
2022-08-21T17:14:05.743Z,5.40
2022-08-21T17:16:32.521Z,6.50
2022-08-21T17:18:59.026Z,5.00
2022-08-21T17:21:25.558Z,5.40
2022-08-21T17:23:52.156Z,5.53
2022-08-21T17:26:20.161Z,5.57
2022-08-21T17:28:47.171Z,5.07
2022-08-21T17:31:14.152Z,5.77
2022-08-21T17:33:50.457Z,5.83
2022-08-21T17:36:27.707Z,5.80
2022-08-21T17:38:54.516Z,5.53
2022-08-21T17:41:21.304Z,5.20
2022-08-21T17:43:48.155Z,5.10
2022-08-21T17:46:17.898Z,5.43
2022-08-21T17:48:47.241Z,5.87
2022-08-21T17:51:14.670Z,4.90
2022-08-21T17:53:42.149Z,5.90
2022-08-21T17:56:08.902Z,7.60
2022-08-21T17:58:36.218Z,5.20
2022-08-21T18:01:04.064Z,4.80
2022-08-21T18:03:30.772Z,5.77
2022-08-21T18:06:03.786Z,5.93
2022-08-21T18:08:32.044Z,7.43
2022-08-21T18:10:59.316Z,12.10
2022-08-21T18:13:29.033Z,6.40
2022-08-21T18:15:56.439Z,6.43
2022-08-21T18:18:24.081Z,6.33
2022-08-21T18:20:51.158Z,7.30
2022-08-21T18:23:17.711Z,5.70
2022-08-21T18:25:47.233Z,6.20
2022-08-21T18:28:14.197Z,6.67
2022-08-21T18:30:42.275Z,5.70
2022-08-21T18:33:09.343Z,8.37
2022-08-21T18:35:35.983Z,6.17
2022-08-21T18:38:03.043Z,7.23
2022-08-21T18:40:31.455Z,8.00
2022-08-21T18:43:01.529Z,6.73
2022-08-21T18:45:28.371Z,6.97
2022-08-21T18:47:55.695Z,7.00
2022-08-21T18:53:18.238Z,7.40
2022-08-21T18:55:54.713Z,7.50
2022-08-21T18:58:24.838Z,7.90
2022-08-21T19:00:52.742Z,7.13
2022-08-21T19:03:23.869Z,7.27
2022-08-21T19:05:51.379Z,6.73
2022-08-21T19:08:19.019Z,6.57
2022-08-21T19:10:46.769Z,7.00
2022-08-21T19:13:15.083Z,6.97
2022-08-21T19:15:42.382Z,7.07
2022-08-21T19:18:11.037Z,6.53
2022-08-21T19:20:41.512Z,7.80
2022-08-21T19:23:09.827Z,13.23
2022-08-21T19:25:41.847Z,7.63
2022-08-21T19:28:11.388Z,7.80
2022-08-21T19:30:58.350Z,6.90
2022-08-21T19:33:35.764Z,8.67
2022-08-21T19:36:04.087Z,7.80
2022-08-21T19:38:30.781Z,7.03
2022-08-21T19:40:59.089Z,8.23
2022-08-21T19:43:26.331Z,6.50
2022-08-21T19:45:56.951Z,7.87
2022-08-21T19:48:24.557Z,7.20
2022-08-21T19:50:51.623Z,9.57
2022-08-21T19:53:19.256Z,6.23
2022-08-21T19:55:46.719Z,7.60
2022-08-21T19:58:38.345Z,7.00
2022-08-21T20:01:11.305Z,7.30
2022-08-21T20:03:43.519Z,14.50
2022-08-21T20:06:11.095Z,8.03
2022-08-21T20:08:37.880Z,6.57
2022-08-21T20:11:06.154Z,7.83
2022-08-21T20:13:33.727Z,6.23
2022-08-21T20:16:01.776Z,9.03
2022-08-21T20:18:28.540Z,7.77
2022-08-21T20:20:55.911Z,8.60
2022-08-21T20:23:30.108Z,7.40
2022-08-21T20:25:57.922Z,7.27
2022-08-21T20:28:24.629Z,7.57
2022-08-21T20:30:52.985Z,7.70
2022-08-21T20:33:19.617Z,7.00
2022-08-21T20:35:49.923Z,7.73
2022-08-21T20:38:16.843Z,7.67
2022-08-21T20:40:44.249Z,6.67
2022-08-21T20:43:12.838Z,7.43
2022-08-21T20:45:40.090Z,6.13
2022-08-21T20:48:15.578Z,6.80
2022-08-21T20:50:46.076Z,5.60
2022-08-21T20:53:43.441Z,6.93
2022-08-21T20:56:16.025Z,6.60
2022-08-21T20:58:47.574Z,5.87
2022-08-21T21:01:15.384Z,6.67
2022-08-21T21:03:48.398Z,6.47
2022-08-21T21:06:25.137Z,5.90
2022-08-21T21:08:54.329Z,5.73
2022-08-21T21:11:27.907Z,7.53
2022-08-21T21:13:59.371Z,6.27
2022-08-21T21:16:36.416Z,4.93
2022-08-21T21:19:23.597Z,8.30
2022-08-21T21:21:53.920Z,6.17
2022-08-21T21:24:27.725Z,7.33
2022-08-21T21:27:11.517Z,5.73
2022-08-21T21:29:50.696Z,5.90
2022-08-21T21:32:18.657Z,5.23
2022-08-21T21:34:51.165Z,9.83
2022-08-21T21:37:25.335Z,7.57
2022-08-21T21:40:27.203Z,6.50
2022-08-21T21:43:07.136Z,6.13
2022-08-21T21:46:06.268Z,6.57
2022-08-21T21:48:54.597Z,5.33
2022-08-21T21:51:36.113Z,9.23
2022-08-21T21:54:14.439Z,6.83
2022-08-21T21:56:55.098Z,5.90
2022-08-21T21:59:40.373Z,5.93
2022-08-21T22:02:13.508Z,7.90
2022-08-21T22:04:40.231Z,6.40
2022-08-21T22:07:26.698Z,5.87
2022-08-21T22:09:54.288Z,6.07
2022-08-21T22:12:34.428Z,10.13
2022-08-21T22:15:27.548Z,6.17
2022-08-21T22:18:05.183Z,6.03
2022-08-21T22:20:36.352Z,6.60
2022-08-21T22:23:03.984Z,5.90
2022-08-21T22:25:36.389Z,6.13
2022-08-21T22:31:14.701Z,6.13
2022-08-21T22:34:03.499Z,9.13
2022-08-21T22:36:31.878Z,5.90
2022-08-21T22:38:58.635Z,9.93
2022-08-21T22:41:29.116Z,6.00
2022-08-21T22:43:57.228Z,5.93
2022-08-21T22:46:38.527Z,5.73
2022-08-21T22:49:08.088Z,6.40
2022-08-21T22:51:37.696Z,5.33
2022-08-21T22:54:05.072Z,6.30
2022-08-21T22:56:45.967Z,7.17
2022-08-21T22:59:27.066Z,6.37
2022-08-21T23:01:58.344Z,8.60
2022-08-21T23:04:25.680Z,8.00
2022-08-21T23:06:58.191Z,7.20
2022-08-21T23:09:29.489Z,6.70
2022-08-21T23:11:57.598Z,7.93
2022-08-21T23:14:24.602Z,7.00
2022-08-21T23:16:54.558Z,6.67
2022-08-21T23:19:44.849Z,6.07
2022-08-21T23:22:29.641Z,5.80
2022-08-21T23:24:59.229Z,6.60
2022-08-21T23:27:35.791Z,8.20
2022-08-21T23:30:07.611Z,6.53
2022-08-21T23:32:47.099Z,7.10
2022-08-21T23:35:44.361Z,6.57
2022-08-21T23:38:19.851Z,8.00
2022-08-21T23:40:56.299Z,7.53
2022-08-21T23:43:22.793Z,10.17
2022-08-21T23:45:59.781Z,7.60
2022-08-21T23:48:29.342Z,6.10
2022-08-21T23:51:00.581Z,7.00
2022-08-21T23:53:50.282Z,8.80
2022-08-21T23:56:31.996Z,9.13
2022-08-21T23:59:17.218Z,8.10
